Time;durP1;ratioP1;P1;durP2;ratioP2;P2;SDS_P1;SDS_P2;PMS_P1;PMS_P2;Temp;Humidity;BMP_temperature;BMP_pressure;BME280_temperature;BME280_humidity;BME280_pressure;Samples;Min_cycle;Max_cycle;Signal;HPM_P1;HPM_P2
2022/03/06 00:02:14;;;;;;;17.17;10.27;;;0.70;99.90;;;;;;5061385;28;20042;-84
2022/03/06 00:04:39;;;;;;;16.45;9.82;;;0.70;99.90;;;;;;5059218;28;20040;-84
2022/03/06 00:07:05;;;;;;;17.83;9.85;;;0.80;99.90;;;;;;5033167;28;20428;-85
2022/03/06 00:09:31;;;;;;;15.73;9.85;;;0.80;99.90;;;;;;5077937;28;20032;-85
2022/03/06 00:11:57;;;;;;;15.80;9.93;;;0.90;99.90;;;;;;5060417;28;20045;-84
2022/03/06 00:14:23;;;;;;;16.23;9.80;;;0.90;99.90;;;;;;5082608;28;20557;-83
2022/03/06 00:16:51;;;;;;;17.63;9.95;;;1.90;99.90;;;;;;5048031;28;20044;-82
2022/03/06 00:19:18;;;;;;;14.48;9.63;;;0.90;99.90;;;;;;5080963;28;20054;-82
2022/03/06 00:21:44;;;;;;;18.08;9.20;;;1.00;99.90;;;;;;5060267;28;20066;-82
2022/03/06 00:24:11;;;;;;;17.98;9.65;;;1.00;99.90;;;;;;5074252;28;20052;-83
2022/03/06 00:26:37;;;;;;;14.30;8.88;;;1.30;99.90;;;;;;5050219;28;20078;-83
2022/03/06 00:29:03;;;;;;;16.40;9.25;;;1.10;99.90;;;;;;5042295;28;20111;-82
2022/03/06 00:31:29;;;;;;;15.95;8.50;;;1.10;99.90;;;;;;5040809;28;20047;-82
2022/03/06 00:33:55;;;;;;;16.27;8.23;;;1.10;99.90;;;;;;5076027;28;20074;-82
2022/03/06 00:36:22;;;;;;;13.80;8.30;;;1.10;99.90;;;;;;5059635;28;20048;-82
2022/03/06 00:38:48;;;;;;;15.20;8.23;;;1.20;99.90;;;;;;5082287;28;20039;-84
2022/03/06 00:41:15;;;;;;;16.80;8.57;;;1.60;99.90;;;;;;5068554;28;20151;-82
2022/03/06 00:43:40;;;;;;;14.65;8.07;;;1.30;99.90;;;;;;5083460;28;20031;-83
2022/03/06 00:46:07;;;;;;;14.20;8.52;;;1.30;99.90;;;;;;5052321;28;20036;-83
2022/03/06 00:48:32;;;;;;;14.93;7.85;;;1.30;99.90;;;;;;5062804;28;20089;-82
2022/03/06 00:50:58;;;;;;;13.65;7.88;;;2.10;99.90;;;;;;5084230;28;20036;-83
2022/03/06 00:53:24;;;;;;;13.85;7.70;;;1.70;99.90;;;;;;5075750;28;20159;-82
2022/03/06 00:55:50;;;;;;;12.85;7.10;;;1.30;99.90;;;;;;5081019;28;20518;-82
2022/03/06 00:58:17;;;;;;;14.30;8.02;;;1.20;99.90;;;;;;5052604;28;20046;-83
2022/03/06 01:00:46;;;;;;;14.05;7.47;;;1.20;99.90;;;;;;5083857;28;20035;-82
2022/03/06 01:03:17;;;;;;;14.50;7.70;;;2.10;99.90;;;;;;5079135;28;20032;-84
2022/03/06 01:05:44;;;;;;;13.25;7.65;;;1.30;99.90;;;;;;5081640;28;20079;-84
2022/03/06 01:08:10;;;;;;;13.45;7.90;;;1.30;99.90;;;;;;5081190;28;20040;-84
2022/03/06 01:10:37;;;;;;;13.75;7.90;;;1.30;99.90;;;;;;5063045;28;20036;-85
2022/03/06 01:13:05;;;;;;;14.57;7.68;;;2.60;99.90;;;;;;5079635;28;20492;-84
2022/03/06 01:15:31;;;;;;;16.88;8.23;;;1.30;99.90;;;;;;5081380;28;20036;-84
2022/03/06 01:17:58;;;;;;;14.77;7.50;;;3.00;99.90;;;;;;5063387;28;20071;-85
2022/03/06 01:20:24;;;;;;;13.68;7.00;;;1.30;99.90;;;;;;5059928;28;20040;-85
2022/03/06 01:22:50;;;;;;;13.13;7.43;;;1.30;99.90;;;;;;5074700;28;20062;-84
2022/03/06 01:25:16;;;;;;;13.63;7.43;;;1.30;99.90;;;;;;5100665;28;20052;-85
2022/03/06 01:27:42;;;;;;;15.77;7.78;;;1.30;99.90;;;;;;5075320;28;20109;-84
2022/03/06 01:30:10;;;;;;;14.90;7.80;;;3.00;99.90;;;;;;5064930;28;20036;-83
2022/03/06 01:32:36;;;;;;;14.88;7.95;;;1.30;99.90;;;;;;5082218;28;20056;-82
2022/03/06 01:35:03;;;;;;;13.27;7.25;;;1.40;99.90;;;;;;5058760;28;20040;-82
2022/03/06 01:37:29;;;;;;;13.63;7.78;;;1.30;99.90;;;;;;5066448;28;20127;-85
2022/03/06 01:39:55;;;;;;;14.55;7.32;;;1.30;99.90;;;;;;5065675;28;20092;-85
2022/03/06 01:42:20;;;;;;;15.25;7.65;;;-0.60;99.90;;;;;;5083531;28;20040;-82
2022/03/06 01:44:50;;;;;;;13.05;6.88;;;1.30;99.90;;;;;;5073090;28;20481;-82
2022/03/06 01:47:45;;;;;;;13.07;7.18;;;1.30;99.90;;;;;;5049866;28;20067;-82
2022/03/06 01:50:17;;;;;;;14.15;7.55;;;1.40;99.90;;;;;;5062541;28;20052;-82
2022/03/06 01:52:44;;;;;;;13.95;7.35;;;2.60;99.90;;;;;;5061583;28;20043;-82
2022/03/06 01:55:11;;;;;;;14.63;7.28;;;1.40;99.90;;;;;;5071487;28;20060;-81
2022/03/06 01:57:39;;;;;;;13.13;7.07;;;1.40;99.90;;;;;;5065353;28;20068;-82
2022/03/06 02:00:08;;;;;;;13.85;6.90;;;3.10;99.90;;;;;;5070120;28;20070;-83
2022/03/06 02:02:34;;;;;;;13.32;7.00;;;1.40;99.90;;;;;;5084002;28;20494;-82
2022/03/06 02:05:00;;;;;;;13.82;6.57;;;1.40;99.90;;;;;;5044204;28;20115;-82
2022/03/06 02:07:26;;;;;;;12.43;6.40;;;1.30;99.90;;;;;;5072750;28;20577;-82
2022/03/06 02:09:52;;;;;;;11.85;6.15;;;1.70;99.90;;;;;;5081492;28;20036;-82
2022/03/06 02:12:24;;;;;;;14.63;6.00;;;1.40;99.90;;;;;;5065110;28;20044;-81
2022/03/06 02:14:59;;;;;;;11.77;5.68;;;1.40;99.90;;;;;;5084351;28;20076;-83
2022/03/06 02:17:26;;;;;;;11.95;5.70;;;1.40;99.90;;;;;;5075851;28;20405;-83
2022/03/06 02:19:57;;;;;;;11.18;5.60;;;3.00;99.90;;;;;;5074753;28;20036;-82
2022/03/06 02:22:25;;;;;;;10.95;5.47;;;1.40;99.90;;;;;;5081139;28;20074;-82
2022/03/06 02:24:52;;;;;;;13.68;5.78;;;1.40;99.90;;;;;;5070688;28;20052;-83
2022/03/06 02:27:18;;;;;;;11.43;4.78;;;1.40;99.90;;;;;;5076862;28;20064;-83
2022/03/06 02:29:44;;;;;;;11.50;5.10;;;2.00;99.90;;;;;;5043856;28;20070;-83
2022/03/06 02:32:13;;;;;;;11.07;5.10;;;3.00;99.90;;;;;;5057716;28;20464;-83
2022/03/06 02:34:41;;;;;;;10.68;4.55;;;1.50;99.90;;;;;;5081168;28;20036;-83
2022/03/06 02:37:07;;;;;;;11.40;4.55;;;1.50;99.90;;;;;;5077420;28;20040;-83
2022/03/06 02:39:32;;;;;;;10.63;4.80;;;3.20;99.90;;;;;;5063976;28;20040;-83
2022/03/06 02:41:59;;;;;;;10.52;4.45;;;2.50;99.90;;;;;;5064219;28;20051;-83
2022/03/06 02:44:25;;;;;;;12.68;4.60;;;1.50;99.90;;;;;;5047640;28;20115;-83
2022/03/06 02:46:51;;;;;;;10.38;4.50;;;3.30;99.90;;;;;;5044047;28;20111;-83
2022/03/06 02:49:18;;;;;;;10.50;4.70;;;1.60;99.90;;;;;;5078026;28;20051;-83
2022/03/06 02:51:45;;;;;;;11.20;4.47;;;1.60;99.90;;;;;;5074296;28;20105;-82
2022/03/06 02:54:11;;;;;;;10.55;4.50;;;1.60;99.90;;;;;;5057474;28;20058;-83
2022/03/06 02:56:37;;;;;;;11.43;4.47;;;2.80;99.90;;;;;;5073388;28;20044;-83
2022/03/06 02:59:04;;;;;;;9.93;4.45;;;2.50;99.90;;;;;;5068503;28;20040;-82
2022/03/06 03:01:31;;;;;;;10.18;4.50;;;1.60;99.90;;;;;;5077261;28;20048;-83
2022/03/06 03:03:57;;;;;;;11.95;4.78;;;3.10;99.90;;;;;;5073991;28;20028;-83
2022/03/06 03:06:23;;;;;;;12.38;4.85;;;1.60;99.90;;;;;;5079564;28;20180;-83
2022/03/06 03:08:48;;;;;;;11.60;4.95;;;2.90;99.90;;;;;;5044252;28;20480;-82
2022/03/06 03:11:15;;;;;;;10.45;4.82;;;1.50;99.90;;;;;;5063604;28;20044;-84
2022/03/06 03:13:40;;;;;;;11.18;4.78;;;1.50;99.90;;;;;;5060039;28;20032;-83
2022/03/06 03:16:07;;;;;;;10.57;4.50;;;1.50;99.90;;;;;;5064874;28;20039;-83
2022/03/06 03:18:32;;;;;;;13.48;4.75;;;1.50;99.90;;;;;;5068090;28;20040;-83
2022/03/06 03:20:59;;;;;;;11.27;4.65;;;1.40;99.90;;;;;;5083162;28;20455;-83
2022/03/06 03:23:24;;;;;;;11.95;5.05;;;1.80;99.90;;;;;;5067359;28;20100;-83
2022/03/06 03:25:50;;;;;;;10.93;4.82;;;1.40;99.90;;;;;;5051201;28;20035;-84
2022/03/06 03:28:16;;;;;;;10.43;4.60;;;1.40;99.90;;;;;;5058471;28;20071;-84
2022/03/06 03:30:42;;;;;;;11.18;4.82;;;1.30;99.90;;;;;;5076277;28;20512;-84
2022/03/06 03:33:08;;;;;;;14.10;5.13;;;1.30;99.90;;;;;;5062780;28;20154;-83
2022/03/06 03:35:33;;;;;;;11.40;4.68;;;1.30;99.90;;;;;;5072653;28;20032;-83
2022/03/06 03:37:59;;;;;;;10.45;4.60;;;2.60;99.90;;;;;;5077476;28;20100;-83
2022/03/06 03:40:25;;;;;;;10.65;4.70;;;1.20;99.90;;;;;;5058602;28;20051;-83
2022/03/06 03:42:51;;;;;;;10.27;4.20;;;1.20;99.90;;;;;;5066055;28;20472;-84
2022/03/06 03:45:16;;;;;;;10.80;4.35;;;1.20;99.90;;;;;;5033282;28;20036;-84
2022/03/06 03:47:42;;;;;;;10.93;4.10;;;1.10;99.90;;;;;;5042925;28;20040;-83
2022/03/06 03:50:08;;;;;;;10.77;4.50;;;1.20;99.90;;;;;;5059759;28;20074;-83
2022/03/06 03:52:34;;;;;;;10.63;4.38;;;1.10;99.90;;;;;;5047341;28;20040;-82
2022/03/06 03:55:00;;;;;;;9.63;4.22;;;2.10;99.90;;;;;;5046066;28;20110;-85
2022/03/06 03:57:26;;;;;;;10.10;4.45;;;1.10;99.90;;;;;;5058554;28;20041;-82
2022/03/06 03:59:52;;;;;;;9.35;4.35;;;1.10;99.90;;;;;;5049121;28;20036;-83
2022/03/06 04:02:17;;;;;;;11.40;4.40;;;1.00;99.90;;;;;;5055601;28;20044;-83
2022/03/06 04:04:43;;;;;;;9.90;4.35;;;1.10;99.90;;;;;;5060902;28;20063;-83
2022/03/06 04:07:09;;;;;;;10.15;4.45;;;2.30;99.90;;;;;;5059954;28;20037;-83
2022/03/06 04:09:35;;;;;;;11.77;4.10;;;0.90;99.90;;;;;;5063877;28;20072;-83
2022/03/06 04:12:01;;;;;;;10.90;4.07;;;2.90;99.90;;;;;;5040034;28;20377;-83
2022/03/06 04:14:26;;;;;;;9.45;4.30;;;0.90;99.90;;;;;;5062333;28;20048;-83
2022/03/06 04:16:52;;;;;;;9.90;4.10;;;0.80;99.90;;;;;;5078408;28;20040;-84
2022/03/06 04:19:18;;;;;;;10.07;4.40;;;1.10;99.90;;;;;;5060737;28;20529;-83
2022/03/06 04:21:43;;;;;;;11.35;4.30;;;0.80;99.90;;;;;;5071328;28;20036;-83
2022/03/06 04:24:09;;;;;;;10.77;4.43;;;0.80;99.90;;;;;;5079215;28;20060;-82
2022/03/06 04:26:35;;;;;;;10.80;4.30;;;0.80;99.90;;;;;;5062296;28;20109;-83
2022/03/06 04:29:02;;;;;;;11.48;4.03;;;0.60;99.90;;;;;;5068990;28;20448;-82
2022/03/06 04:31:28;;;;;;;11.07;4.20;;;0.70;99.90;;;;;;5049717;28;20064;-82
2022/03/06 04:33:54;;;;;;;10.55;4.25;;;0.80;99.90;;;;;;5069845;28;20039;-83
2022/03/06 04:36:19;;;;;;;10.77;4.10;;;2.20;99.90;;;;;;5062007;28;20462;-83
2022/03/06 04:38:45;;;;;;;10.35;4.07;;;0.60;99.90;;;;;;5067196;28;20079;-82
2022/03/06 04:41:11;;;;;;;10.60;4.00;;;0.60;99.90;;;;;;5061546;28;20033;-83
2022/03/06 04:43:37;;;;;;;11.68;4.20;;;0.50;99.90;;;;;;5063401;28;20068;-82
2022/03/06 04:46:03;;;;;;;11.23;4.43;;;0.50;99.90;;;;;;5079060;28;20887;-84
2022/03/06 04:48:29;;;;;;;14.35;5.03;;;2.10;99.90;;;;;;5075861;28;20064;-82
2022/03/06 04:50:55;;;;;;;10.35;4.00;;;0.50;99.90;;;;;;5064788;28;20091;-82
2022/03/06 04:53:20;;;;;;;10.80;4.28;;;0.50;99.90;;;;;;5064421;28;20097;-83
2022/03/06 04:55:46;;;;;;;9.32;3.85;;;0.40;99.90;;;;;;5048119;28;20047;-83
2022/03/06 04:58:12;;;;;;;10.25;4.15;;;0.40;99.90;;;;;;5069165;28;20047;-83
2022/03/06 05:00:38;;;;;;;9.85;4.05;;;0.40;99.90;;;;;;5061251;28;20037;-83
2022/03/06 05:03:03;;;;;;;9.73;4.13;;;0.40;99.90;;;;;;5064904;28;20093;-83
2022/03/06 05:05:29;;;;;;;10.82;4.00;;;0.40;99.90;;;;;;5055462;28;20033;-83
2022/03/06 05:07:55;;;;;;;10.15;4.10;;;0.30;99.90;;;;;;5061994;28;20631;-82
2022/03/06 05:10:21;;;;;;;10.40;4.50;;;0.20;99.90;;;;;;5080518;28;20036;-83
2022/03/06 05:12:46;;;;;;;9.73;4.13;;;0.30;99.90;;;;;;5072541;28;20037;-83
2022/03/06 05:15:13;;;;;;;10.10;4.40;;;0.20;99.90;;;;;;5085171;28;20520;-83
2022/03/06 05:17:40;;;;;;;10.90;4.45;;;0.10;99.90;;;;;;5086709;28;20032;-83
2022/03/06 05:20:07;;;;;;;9.20;3.80;;;0.10;99.90;;;;;;5068455;28;20040;-83
2022/03/06 05:22:33;;;;;;;10.82;4.10;;;0.10;99.90;;;;;;5076446;28;20033;-83
2022/03/06 05:24:59;;;;;;;11.10;4.68;;;0.00;99.90;;;;;;5070399;28;20051;-83
2022/03/06 05:27:26;;;;;;;9.50;3.70;;;0.50;99.90;;;;;;5059008;28;20412;-83
2022/03/06 05:29:52;;;;;;;11.48;4.18;;;-0.10;99.90;;;;;;5063463;28;20039;-83
2022/03/06 05:32:18;;;;;;;10.25;4.20;;;0.00;99.90;;;;;;5058628;28;20055;-83
2022/03/06 05:34:44;;;;;;;10.82;4.13;;;-0.10;99.90;;;;;;5078298;28;20117;-83
2022/03/06 05:37:09;;;;;;;11.75;4.15;;;-0.10;99.90;;;;;;5059663;28;20043;-82
2022/03/06 05:39:35;;;;;;;13.93;4.57;;;-0.20;99.90;;;;;;5077475;28;20048;-83
2022/03/06 05:42:01;;;;;;;10.05;4.10;;;-0.20;99.90;;;;;;5082257;28;20120;-83
2022/03/06 05:44:27;;;;;;;10.63;4.40;;;-0.20;99.90;;;;;;5061943;28;20743;-83
2022/03/06 05:46:53;;;;;;;10.93;4.45;;;-0.30;99.90;;;;;;5078620;28;20054;-83
2022/03/06 05:49:18;;;;;;;10.15;3.97;;;-0.50;99.90;;;;;;5083989;28;20040;-82
2022/03/06 05:51:44;;;;;;;10.88;4.05;;;-0.10;99.90;;;;;;5079968;28;20527;-84
2022/03/06 05:54:13;;;;;;;9.73;4.32;;;-0.40;99.90;;;;;;5064325;28;20120;-83
2022/03/06 05:56:39;;;;;;;9.88;4.20;;;1.50;99.90;;;;;;5085345;28;20040;-82
2022/03/06 05:59:06;;;;;;;10.50;4.18;;;0.20;99.90;;;;;;5066309;28;20040;-83
2022/03/06 06:01:31;;;;;;;11.07;4.18;;;0.80;99.90;;;;;;5068246;28;20060;-83
2022/03/06 06:03:58;;;;;;;9.90;3.90;;;-0.40;99.90;;;;;;5079119;28;20086;-83
2022/03/06 06:06:25;;;;;;;9.00;3.72;;;-0.40;99.90;;;;;;5079310;28;20115;-83
2022/03/06 06:08:51;;;;;;;9.75;4.15;;;-0.40;99.90;;;;;;5074912;28;20055;-83
2022/03/06 06:11:18;;;;;;;9.40;3.83;;;-0.50;99.90;;;;;;5064457;28;20075;-83
2022/03/06 06:13:44;;;;;;;12.10;4.05;;;0.60;99.90;;;;;;5064589;28;20032;-83
2022/03/06 06:16:10;;;;;;;10.88;4.18;;;0.30;99.90;;;;;;5059817;28;20393;-83
2022/03/06 06:18:36;;;;;;;9.95;4.18;;;-0.50;99.90;;;;;;5057339;28;20035;-83
2022/03/06 06:21:03;;;;;;;10.82;3.80;;;0.20;99.90;;;;;;5076244;28;20074;-82
2022/03/06 06:23:29;;;;;;;10.45;3.83;;;-0.50;99.90;;;;;;5086060;28;20747;-82
2022/03/06 06:25:55;;;;;;;10.55;4.10;;;-0.40;99.90;;;;;;5079008;28;20059;-83
2022/03/06 06:28:20;;;;;;;9.52;3.92;;;-0.50;99.90;;;;;;5069107;28;20089;-83
2022/03/06 06:30:46;;;;;;;9.43;4.18;;;-0.40;99.90;;;;;;5065008;28;20038;-83
2022/03/06 06:33:12;;;;;;;9.55;4.13;;;-0.40;99.90;;;;;;5067293;28;20047;-83
2022/03/06 06:35:38;;;;;;;9.23;3.72;;;-0.40;99.90;;;;;;5081661;28;20554;-82
2022/03/06 06:38:04;;;;;;;9.57;3.92;;;-0.40;99.90;;;;;;5073892;28;20111;-82
2022/03/06 06:40:30;;;;;;;10.00;4.45;;;-0.50;99.90;;;;;;5066886;28;20085;-83
2022/03/06 06:42:56;;;;;;;8.90;3.75;;;-0.40;99.90;;;;;;5084538;28;20046;-83
2022/03/06 06:45:22;;;;;;;8.98;3.80;;;-0.40;99.90;;;;;;5080464;28;20033;-82
2022/03/06 06:47:48;;;;;;;10.27;3.90;;;-0.40;99.90;;;;;;5078576;28;20462;-82
2022/03/06 06:50:14;;;;;;;9.85;4.05;;;-0.40;99.90;;;;;;5079195;28;20519;-83
2022/03/06 06:52:39;;;;;;;9.93;3.75;;;0.30;99.90;;;;;;5074557;28;20048;-82
2022/03/06 06:55:06;;;;;;;8.48;3.60;;;-0.30;99.90;;;;;;5061351;28;20163;-83
2022/03/06 06:57:32;;;;;;;8.95;3.63;;;-0.30;99.90;;;;;;5072684;28;20055;-83
2022/03/06 06:59:59;;;;;;;10.35;3.45;;;-0.20;99.90;;;;;;5062620;28;20533;-83
2022/03/06 07:02:25;;;;;;;7.85;3.08;;;-0.10;99.90;;;;;;5078906;28;20048;-83
2022/03/06 07:04:51;;;;;;;8.95;3.58;;;-0.10;99.90;;;;;;5080080;28;20108;-82
2022/03/06 07:07:17;;;;;;;9.13;3.33;;;0.00;99.90;;;;;;5060880;28;20497;-83
2022/03/06 07:09:42;;;;;;;8.93;3.38;;;0.10;99.90;;;;;;5045593;28;20462;-83
2022/03/06 07:12:09;;;;;;;9.40;3.60;;;1.70;99.90;;;;;;5082495;28;20066;-83
2022/03/06 07:14:34;;;;;;;7.90;3.28;;;0.20;99.90;;;;;;5080323;28;20071;-83
2022/03/06 07:17:00;;;;;;;8.40;3.42;;;0.30;99.90;;;;;;5046906;28;20064;-83
2022/03/06 07:19:26;;;;;;;8.27;3.10;;;0.30;99.90;;;;;;5079274;28;20521;-83
2022/03/06 07:21:52;;;;;;;8.32;3.08;;;2.30;99.90;;;;;;5061721;28;20036;-83
2022/03/06 07:24:17;;;;;;;8.27;3.13;;;0.60;99.90;;;;;;5048992;28;20059;-83
2022/03/06 07:26:43;;;;;;;9.15;2.97;;;0.90;99.90;;;;;;5029305;28;20040;-83
2022/03/06 07:29:09;;;;;;;9.45;3.00;;;0.80;99.90;;;;;;5063492;28;20073;-83
2022/03/06 07:31:36;;;;;;;10.18;2.97;;;1.20;99.90;;;;;;5056281;28;20072;-82
2022/03/06 07:34:02;;;;;;;8.07;2.90;;;1.00;99.90;;;;;;5070246;28;20531;-83
2022/03/06 07:36:27;;;;;;;8.88;3.00;;;1.10;99.90;;;;;;5050576;28;20551;-83
2022/03/06 07:38:53;;;;;;;7.68;2.75;;;1.20;99.90;;;;;;5079689;28;20040;-84
2022/03/06 07:41:19;;;;;;;7.57;2.90;;;1.40;99.90;;;;;;5063123;28;20051;-83
2022/03/06 07:43:45;;;;;;;8.02;2.90;;;1.50;99.90;;;;;;5058710;28;20089;-83
2022/03/06 07:46:11;;;;;;;8.80;3.08;;;3.50;99.90;;;;;;5066523;28;20048;-83
2022/03/06 07:48:37;;;;;;;8.70;3.30;;;2.40;99.90;;;;;;5069272;28;20050;-84
2022/03/06 07:51:03;;;;;;;9.35;3.38;;;2.80;99.90;;;;;;5054575;28;20446;-83
2022/03/06 07:53:29;;;;;;;7.15;2.83;;;2.00;99.90;;;;;;5081855;28;20046;-83
2022/03/06 07:55:54;;;;;;;9.23;3.08;;;2.10;99.90;;;;;;5067265;28;20040;-83
2022/03/06 07:58:20;;;;;;;8.93;3.03;;;2.20;99.90;;;;;;5056896;28;20040;-83
2022/03/06 08:00:46;;;;;;;8.32;2.80;;;3.80;99.90;;;;;;5063054;28;20031;-83
2022/03/06 08:03:12;;;;;;;7.78;2.95;;;3.40;99.90;;;;;;5057684;28;20040;-83
2022/03/06 08:05:37;;;;;;;7.90;2.72;;;2.50;99.90;;;;;;5063366;28;20036;-82
2022/03/06 08:08:03;;;;;;;7.43;2.70;;;3.50;99.90;;;;;;5061297;28;20040;-83
2022/03/06 08:10:29;;;;;;;8.40;2.80;;;2.60;99.90;;;;;;5077688;28;20123;-83
2022/03/06 08:12:55;;;;;;;8.25;2.80;;;2.70;99.90;;;;;;5060660;28;20131;-83
2022/03/06 08:15:21;;;;;;;9.63;2.47;;;2.80;99.90;;;;;;5061141;28;20115;-84
2022/03/06 08:17:47;;;;;;;8.20;2.60;;;2.80;99.90;;;;;;5064838;28;20074;-82
2022/03/06 08:20:13;;;;;;;7.78;2.58;;;2.90;99.90;;;;;;5066357;28;20044;-84
2022/03/06 08:22:39;;;;;;;8.68;2.58;;;2.90;99.90;;;;;;5081400;28;20036;-83
2022/03/06 08:25:06;;;;;;;8.32;2.70;;;3.00;99.90;;;;;;5079992;28;20102;-83
2022/03/06 08:27:32;;;;;;;6.65;2.40;;;3.00;99.90;;;;;;5080838;28;20035;-83
2022/03/06 08:29:59;;;;;;;7.18;2.47;;;3.00;99.90;;;;;;5061219;28;20047;-83
2022/03/06 08:32:25;;;;;;;8.50;2.40;;;3.00;99.90;;;;;;5078465;28;20338;-83
2022/03/06 08:34:53;;;;;;;7.35;2.50;;;4.00;99.90;;;;;;5063684;28;20036;-83
2022/03/06 08:37:20;;;;;;;8.18;3.03;;;3.10;99.90;;;;;;5077555;28;20055;-83
2022/03/06 08:39:47;;;;;;;7.72;2.50;;;3.20;99.90;;;;;;5065763;28;20051;-83
2022/03/06 08:42:13;;;;;;;8.77;2.45;;;5.00;99.90;;;;;;5073071;28;20116;-83
2022/03/06 08:44:39;;;;;;;6.90;2.30;;;4.20;99.90;;;;;;5029733;28;20073;-83
2022/03/06 08:47:05;;;;;;;6.97;2.30;;;3.30;99.90;;;;;;5079606;28;20035;-83
2022/03/06 08:49:31;;;;;;;7.63;2.47;;;3.40;99.90;;;;;;5062572;28;20583;-83
2022/03/06 08:51:57;;;;;;;6.15;2.30;;;4.50;99.90;;;;;;5062998;28;20112;-83
2022/03/06 08:54:23;;;;;;;8.40;3.15;;;3.50;99.90;;;;;;5061795;28;20051;-82
2022/03/06 08:56:49;;;;;;;9.50;2.80;;;3.60;99.90;;;;;;5061642;28;20036;-83
2022/03/06 08:59:15;;;;;;;6.60;2.33;;;3.70;99.90;;;;;;5059299;28;20074;-83
2022/03/06 09:01:41;;;;;;;8.60;2.60;;;4.60;99.90;;;;;;5064437;28;20036;-84
2022/03/06 09:04:06;;;;;;;8.48;2.53;;;4.30;99.90;;;;;;5080585;28;20033;-84
2022/03/06 09:06:33;;;;;;;9.70;2.75;;;3.80;99.90;;;;;;5067095;28;20047;-83
2022/03/06 09:08:59;;;;;;;7.68;2.42;;;3.90;99.90;;;;;;5054180;28;20051;-83
2022/03/06 09:11:24;;;;;;;8.02;2.55;;;4.00;99.90;;;;;;5068340;28;20119;-83
2022/03/06 09:13:50;;;;;;;7.75;2.55;;;4.00;99.90;;;;;;5063460;28;20174;-82
2022/03/06 09:16:16;;;;;;;7.35;2.63;;;5.40;99.90;;;;;;5064290;28;20033;-82
2022/03/06 09:18:43;;;;;;;8.15;2.70;;;4.20;99.90;;;;;;5045344;28;20060;-82
2022/03/06 09:21:10;;;;;;;7.80;2.50;;;4.10;99.90;;;;;;5061208;28;20075;-82
2022/03/06 09:23:35;;;;;;;7.65;2.45;;;4.50;99.90;;;;;;5068306;28;20051;-83
2022/03/06 09:26:01;;;;;;;7.90;2.58;;;5.90;99.90;;;;;;5071208;28;20028;-82
2022/03/06 09:28:27;;;;;;;7.15;2.50;;;5.70;99.90;;;;;;5071352;28;20489;-83
2022/03/06 09:30:52;;;;;;;10.40;2.80;;;5.90;99.90;;;;;;5054832;28;20146;-82
2022/03/06 09:33:18;;;;;;;8.02;2.72;;;5.20;99.90;;;;;;5069880;28;20055;-82
2022/03/06 09:35:44;;;;;;;6.70;2.50;;;5.70;99.90;;;;;;5070776;28;20069;-82
2022/03/06 09:38:10;;;;;;;6.45;2.42;;;5.70;99.90;;;;;;5085811;28;20047;-84
2022/03/06 09:40:37;;;;;;;7.53;2.50;;;4.30;99.90;;;;;;5088620;28;20028;-83
2022/03/06 09:43:03;;;;;;;7.03;2.40;;;4.30;99.90;;;;;;5088733;28;20075;-83
2022/03/06 09:45:32;;;;;;;7.72;2.40;;;4.30;99.90;;;;;;5071161;28;20072;-84
2022/03/06 09:47:59;;;;;;;7.22;2.50;;;5.10;99.90;;;;;;5088243;28;20036;-83
2022/03/06 09:50:26;;;;;;;9.27;2.42;;;6.20;99.90;;;;;;5071270;28;20548;-83
2022/03/06 09:52:51;;;;;;;8.38;2.60;;;5.30;99.90;;;;;;5070059;28;20040;-82
2022/03/06 09:55:17;;;;;;;7.28;2.40;;;5.30;99.90;;;;;;5087802;28;20097;-82
2022/03/06 09:57:43;;;;;;;8.20;2.60;;;4.60;99.90;;;;;;5088379;28;20032;-83
2022/03/06 10:00:10;;;;;;;8.80;2.53;;;6.30;99.90;;;;;;5069529;28;20036;-82
2022/03/06 10:03:18;;;;;;;9.27;2.53;;;4.80;99.90;;;;;;5055175;28;20036;-83
2022/03/06 10:05:43;;;;;;;7.82;2.60;;;4.80;99.90;;;;;;5006604;28;20454;-82
2022/03/06 10:08:20;;;;;;;6.53;2.38;;;6.20;99.90;;;;;;5039005;28;20036;-82
2022/03/06 10:10:49;;;;;;;7.00;2.58;;;5.00;99.90;;;;;;5088634;28;20502;-83
2022/03/06 10:13:28;;;;;;;8.25;2.83;;;6.30;99.90;;;;;;5083998;28;20055;-82
2022/03/06 10:16:05;;;;;;;8.20;2.80;;;5.10;99.90;;;;;;5073249;28;20036;-82
2022/03/06 10:18:33;;;;;;;9.27;3.10;;;5.10;99.90;;;;;;5088351;28;20048;-82
2022/03/06 10:21:08;;;;;;;7.93;2.65;;;5.10;99.90;;;;;;5085977;28;20035;-82
2022/03/06 10:23:35;;;;;;;8.32;2.80;;;5.60;99.90;;;;;;5071345;28;20040;-85
2022/03/06 10:26:09;;;;;;;8.07;2.95;;;5.10;99.90;;;;;;5069802;28;20044;-82
2022/03/06 10:28:54;;;;;;;8.85;2.97;;;5.20;99.90;;;;;;5087935;28;20040;-83
2022/03/06 10:31:21;;;;;;;7.65;3.00;;;5.30;99.90;;;;;;5087477;28;20032;-83
2022/03/06 10:33:58;;;;;;;8.73;2.75;;;5.40;99.90;;;;;;5069225;28;20035;-83
2022/03/06 10:36:34;;;;;;;8.80;2.70;;;6.20;99.90;;;;;;5069916;28;20063;-83
2022/03/06 10:39:01;;;;;;;6.95;2.65;;;5.60;99.90;;;;;;5066749;28;20119;-83
2022/03/06 10:41:42;;;;;;;7.50;2.65;;;5.60;99.90;;;;;;5069069;28;20516;-83
2022/03/06 10:44:10;;;;;;;8.07;2.70;;;5.60;99.90;;;;;;5087171;28;20524;-84
2022/03/06 10:46:36;;;;;;;9.05;3.00;;;5.70;99.90;;;;;;5085469;28;20040;-83
2022/03/06 10:49:14;;;;;;;9.10;2.65;;;7.20;99.90;;;;;;5088107;28;20036;-84
2022/03/06 10:51:50;;;;;;;6.63;2.60;;;5.50;99.90;;;;;;5087029;28;20067;-84
2022/03/06 10:54:16;;;;;;;8.50;2.70;;;5.60;99.90;;;;;;5071548;28;20032;-83
2022/03/06 10:56:44;;;;;;;7.50;2.65;;;5.60;99.90;;;;;;5070616;28;20548;-84
2022/03/06 10:59:10;;;;;;;8.57;3.05;;;5.90;99.90;;;;;;5087617;28;20024;-83
2022/03/06 11:01:38;;;;;;;9.10;3.10;;;6.10;99.90;;;;;;5086981;28;20610;-83
2022/03/06 11:04:06;;;;;;;8.13;2.90;;;5.60;99.90;;;;;;5087599;28;20037;-84
2022/03/06 11:06:40;;;;;;;7.80;2.50;;;6.60;99.90;;;;;;5087103;28;20089;-84
2022/03/06 11:09:11;;;;;;;8.90;2.72;;;6.90;99.90;;;;;;5066095;28;20028;-83
2022/03/06 11:11:39;;;;;;;10.80;2.70;;;5.70;99.90;;;;;;5070300;28;20443;-84
2022/03/06 11:14:05;;;;;;;7.28;2.50;;;6.40;99.90;;;;;;5085930;28;20448;-83
2022/03/06 11:16:30;;;;;;;9.85;2.60;;;6.50;99.90;;;;;;5070055;28;20050;-84
2022/03/06 11:18:57;;;;;;;9.57;2.72;;;5.60;99.90;;;;;;5087571;28;20077;-84
2022/03/06 11:21:25;;;;;;;9.35;3.00;;;5.70;99.90;;;;;;5070404;28;20040;-84
2022/03/06 11:23:54;;;;;;;7.72;2.70;;;5.90;99.90;;;;;;5086443;28;20055;-83
2022/03/06 11:26:37;;;;;;;8.10;3.00;;;5.90;99.90;;;;;;5083374;28;20044;-84
2022/03/06 11:29:18;;;;;;;8.30;2.70;;;5.90;99.90;;;;;;5069902;28;20062;-84
2022/03/06 11:31:49;;;;;;;9.07;3.05;;;6.00;99.90;;;;;;5083826;28;20042;-84
2022/03/06 11:34:31;;;;;;;8.05;2.63;;;6.10;99.90;;;;;;5070125;28;20048;-84
2022/03/06 11:36:57;;;;;;;8.75;2.70;;;6.30;99.90;;;;;;5086392;28;20138;-85
2022/03/06 11:39:32;;;;;;;9.27;2.90;;;7.40;99.90;;;;;;5051812;28;20040;-84
2022/03/06 11:42:06;;;;;;;9.68;3.00;;;6.40;99.90;;;;;;5086876;28;20048;-84
2022/03/06 11:44:40;;;;;;;8.30;2.80;;;6.40;99.90;;;;;;5085029;28;20032;-84
2022/03/06 11:47:21;;;;;;;9.00;3.25;;;6.40;99.90;;;;;;5084159;28;20071;-84
2022/03/06 11:50:01;;;;;;;9.05;3.03;;;6.50;99.90;;;;;;5068678;28;20039;-83
2022/03/06 11:52:29;;;;;;;8.18;3.10;;;6.80;99.90;;;;;;5085494;28;20044;-84
2022/03/06 11:54:56;;;;;;;6.68;2.40;;;7.70;99.90;;;;;;5050312;28;20115;-83
2022/03/06 11:57:42;;;;;;;8.48;2.85;;;7.90;99.90;;;;;;5069778;28;20043;-83
2022/03/06 12:00:19;;;;;;;9.05;2.88;;;6.70;99.90;;;;;;5085480;28;20031;-83
2022/03/06 12:02:50;;;;;;;9.38;2.90;;;6.70;99.90;;;;;;5084366;28;20039;-84
2022/03/06 12:05:17;;;;;;;7.07;2.78;;;6.60;99.90;;;;;;5085829;28;20547;-83
2022/03/06 12:07:45;;;;;;;8.00;3.13;;;7.40;99.90;;;;;;5085224;28;20046;-83
2022/03/06 12:10:12;;;;;;;8.77;2.70;;;6.50;99.90;;;;;;5068619;28;20063;-83
2022/03/06 12:12:38;;;;;;;9.52;3.20;;;6.50;99.90;;;;;;5086274;28;20128;-84
2022/03/06 12:15:16;;;;;;;8.75;3.05;;;6.50;99.90;;;;;;5082904;28;20630;-83
2022/03/06 12:17:43;;;;;;;7.97;2.80;;;8.00;99.90;;;;;;5085231;28;20040;-84
2022/03/06 12:20:08;;;;;;;8.63;2.90;;;7.50;99.90;;;;;;4349672;28;10000775;-82
2022/03/06 12:22:48;;;;;;;8.70;3.10;;;6.50;99.90;;;;;;5066056;28;20032;-83
2022/03/06 12:25:14;;;;;;;7.97;2.80;;;7.60;99.90;;;;;;5078630;28;20048;-83
2022/03/06 12:27:42;;;;;;;8.15;3.05;;;6.60;99.90;;;;;;5083292;28;20538;-84
2022/03/06 12:30:17;;;;;;;8.10;2.80;;;7.00;99.90;;;;;;5084524;28;20074;-83
2022/03/06 12:32:43;;;;;;;8.82;2.60;;;7.70;99.90;;;;;;5064252;28;20043;-83
2022/03/06 12:35:09;;;;;;;9.27;3.13;;;6.90;99.90;;;;;;5084259;28;20024;-83
2022/03/06 12:37:54;;;;;;;7.63;2.80;;;6.70;99.90;;;;;;5086347;28;20571;-83
2022/03/06 12:40:24;;;;;;;8.50;2.97;;;6.70;99.90;;;;;;5086655;28;20068;-83
2022/03/06 12:43:02;;;;;;;9.15;3.10;;;6.70;99.90;;;;;;5063639;28;20582;-83
2022/03/06 12:45:28;;;;;;;8.25;2.70;;;8.40;99.90;;;;;;5081128;28;20056;-83
2022/03/06 12:47:53;;;;;;;8.40;2.83;;;7.10;99.90;;;;;;5067135;28;20039;-84
2022/03/06 12:50:21;;;;;;;9.98;3.33;;;8.20;99.90;;;;;;5063324;28;20504;-84
2022/03/06 12:52:49;;;;;;;8.60;2.65;;;7.10;99.90;;;;;;5066444;28;20043;-84